Time;durP1;ratioP1;P1;durP2;ratioP2;P2;SDS_P1;SDS_P2;PMS_P1;PMS_P2;Temp;Humidity;BMP_temperature;BMP_pressure;BME280_temperature;BME280_humidity;BME280_pressure;Samples;Min_cycle;Max_cycle;Signal;HPM_P1;HPM_P2
2023/01/28 00:00:13;;;;;;;5.22;4.63;;;;;;;;;;4986133;28;20093;-89
2023/01/28 00:02:39;;;;;;;5.95;4.75;;;;;;;;;;4994541;28;20035;-89
2023/01/28 00:05:05;;;;;;;5.00;4.50;;;;;;;;;;5025607;28;20050;-90
2023/01/28 00:07:34;;;;;;;6.25;4.65;;;;;;;;;;4992889;28;20046;-89
2023/01/28 00:10:00;;;;;;;5.05;4.30;;;;;;;;;;4995721;28;20513;-91
2023/01/28 00:12:26;;;;;;;5.32;4.50;;;;;;;;;;4993575;28;20530;-89
2023/01/28 00:14:52;;;;;;;5.28;4.75;;;;;;;;;;4998266;28;20625;-89
2023/01/28 00:17:18;;;;;;;5.30;4.78;;;;;;;;;;5015680;28;20050;-88
2023/01/28 00:19:44;;;;;;;6.07;4.75;;;;;;;;;;5004122;28;20105;-90
2023/01/28 00:22:10;;;;;;;6.47;5.32;;;;;;;;;;4993493;28;20512;-90
2023/01/28 00:24:36;;;;;;;5.18;4.68;;;;;;;;;;4988279;28;20437;-90
2023/01/28 00:27:02;;;;;;;5.47;4.78;;;;;;;;;;4996696;28;20056;-91
2023/01/28 00:29:28;;;;;;;6.72;5.28;;;;;;;;;;4977700;28;20054;-90
2023/01/28 00:31:57;;;;;;;7.20;5.45;;;;;;;;;;4996300;28;20054;-90
2023/01/28 00:34:23;;;;;;;6.53;5.63;;;;;;;;;;4993880;28;20039;-90
2023/01/28 00:36:56;;;;;;;6.45;5.38;;;;;;;;;;4993134;28;20061;-91
2023/01/28 00:39:23;;;;;;;5.85;5.25;;;;;;;;;;4990930;28;20538;-90
2023/01/28 00:41:49;;;;;;;6.45;5.65;;;;;;;;;;4989331;28;20046;-90
2023/01/28 00:44:15;;;;;;;6.13;5.45;;;;;;;;;;4990971;28;20045;-89
2023/01/28 00:46:41;;;;;;;6.10;5.50;;;;;;;;;;4993037;28;20121;-89
2023/01/28 00:49:07;;;;;;;6.13;5.38;;;;;;;;;;4993209;28;20046;-89
2023/01/28 00:51:33;;;;;;;5.60;5.03;;;;;;;;;;4994930;28;20034;-89
2023/01/28 00:53:59;;;;;;;6.88;5.50;;;;;;;;;;4990921;28;20058;-91
2023/01/28 00:56:25;;;;;;;5.50;5.00;;;;;;;;;;4988431;28;20117;-89
2023/01/28 00:58:51;;;;;;;6.85;5.28;;;;;;;;;;4995285;28;20038;-90
2023/01/28 01:01:19;;;;;;;7.00;5.47;;;;;;;;;;5020414;28;20049;-90
2023/01/28 01:03:45;;;;;;;6.25;5.20;;;;;;;;;;4991000;28;20132;-89
2023/01/28 01:06:12;;;;;;;6.10;5.35;;;;;;;;;;4988149;28;20872;-90
2023/01/28 01:08:41;;;;;;;8.32;6.05;;;;;;;;;;4992763;28;20046;-89
2023/01/28 01:11:11;;;;;;;7.18;6.05;;;;;;;;;;4984495;28;20050;-89
2023/01/28 01:13:37;;;;;;;6.50;5.47;;;;;;;;;;5025167;28;20056;-90
2023/01/28 01:16:07;;;;;;;6.20;5.30;;;;;;;;;;4988232;28;20129;-91
2023/01/28 01:18:40;;;;;;;7.35;6.20;;;;;;;;;;4994141;28;20065;-90
2023/01/28 01:21:17;;;;;;;5.90;5.30;;;;;;;;;;4988295;28;20054;-89
2023/01/28 01:23:43;;;;;;;7.50;5.70;;;;;;;;;;4992229;28;20039;-89
2023/01/28 01:26:10;;;;;;;6.82;5.78;;;;;;;;;;4991591;28;20042;-89
2023/01/28 01:28:36;;;;;;;7.38;5.85;;;;;;;;;;4990382;28;20042;-90
2023/01/28 01:31:03;;;;;;;6.22;5.55;;;;;;;;;;5020111;28;20049;-90
2023/01/28 01:33:30;;;;;;;6.50;5.75;;;;;;;;;;4993395;28;20100;-91
2023/01/28 01:35:56;;;;;;;9.20;5.93;;;;;;;;;;4989541;28;20057;-90
2023/01/28 01:38:22;;;;;;;7.22;6.18;;;;;;;;;;4990830;28;20058;-91
2023/01/28 01:40:49;;;;;;;8.88;6.45;;;;;;;;;;4985458;28;20053;-90
2023/01/28 01:43:16;;;;;;;6.72;5.97;;;;;;;;;;4993655;28;20125;-90
2023/01/28 01:45:43;;;;;;;8.45;6.93;;;;;;;;;;4986509;28;20054;-88
2023/01/28 01:48:20;;;;;;;7.63;6.78;;;;;;;;;;5021535;28;20082;-91
2023/01/28 01:50:56;;;;;;;7.57;6.75;;;;;;;;;;4987714;28;20390;-90
2023/01/28 01:53:22;;;;;;;8.52;6.68;;;;;;;;;;4991973;28;20057;-89
2023/01/28 01:55:50;;;;;;;7.55;6.53;;;;;;;;;;4990066;28;20053;-91
2023/01/28 01:58:19;;;;;;;7.88;6.82;;;;;;;;;;4987388;28;20112;-90
2023/01/28 02:00:45;;;;;;;7.85;6.80;;;;;;;;;;4992309;28;20038;-89
2023/01/28 02:03:12;;;;;;;8.70;7.07;;;;;;;;;;5004972;28;20508;-90
2023/01/28 02:05:38;;;;;;;7.72;6.88;;;;;;;;;;4989357;28;20616;-89
2023/01/28 02:10:52;;;;;;;8.95;6.63;;;;;;;;;;4991107;28;20046;-90
2023/01/28 02:13:20;;;;;;;7.47;6.40;;;;;;;;;;4992026;28;20042;-89
2023/01/28 02:15:46;;;;;;;8.10;6.85;;;;;;;;;;4988433;28;20038;-91
2023/01/28 02:18:12;;;;;;;7.32;6.10;;;;;;;;;;4987890;28;20042;-90
2023/01/28 02:20:50;;;;;;;10.90;8.20;;;;;;;;;;5020363;28;20046;-90
2023/01/28 02:23:19;;;;;;;8.43;7.35;;;;;;;;;;4992351;28;21941;-89
2023/01/28 02:26:09;;;;;;;8.23;7.15;;;;;;;;;;4986577;28;20081;-90
2023/01/28 02:28:47;;;;;;;9.13;7.70;;;;;;;;;;5000115;28;20050;-90
2023/01/28 02:31:28;;;;;;;9.00;7.60;;;;;;;;;;4986843;28;20050;-90
2023/01/28 02:34:05;;;;;;;8.85;7.93;;;;;;;;;;4981536;28;20072;-89
2023/01/28 02:36:37;;;;;;;9.27;7.32;;;;;;;;;;4992041;28;20073;-90
2023/01/28 02:39:06;;;;;;;9.77;7.22;;;;;;;;;;4990955;28;20041;-90
2023/01/28 02:41:34;;;;;;;9.60;7.85;;;;;;;;;;5019405;28;20039;-91
2023/01/28 02:44:04;;;;;;;9.05;7.97;;;;;;;;;;5007461;28;20133;-90
2023/01/28 02:49:17;;;;;;;10.45;7.90;;;;;;;;;;4991188;28;20046;-91
2023/01/28 02:51:58;;;;;;;9.32;7.80;;;;;;;;;;4989214;28;20553;-90
2023/01/28 02:54:24;;;;;;;9.60;8.48;;;;;;;;;;4990144;28;20047;-90
2023/01/28 02:57:03;;;;;;;10.27;8.52;;;;;;;;;;4996781;28;20074;-91
2023/01/28 02:59:40;;;;;;;8.93;7.70;;;;;;;;;;4991560;28;20050;-91
2023/01/28 03:02:19;;;;;;;10.07;8.00;;;;;;;;;;4986847;28;20049;-89
2023/01/28 03:04:48;;;;;;;8.95;7.72;;;;;;;;;;5019101;28;20046;-90
2023/01/28 03:07:15;;;;;;;10.25;8.68;;;;;;;;;;5019507;28;20043;-89
2023/01/28 03:09:43;;;;;;;9.95;8.40;;;;;;;;;;4990628;28;20054;-91
2023/01/28 03:37:31;;;;;;;9.27;8.05;;;;;;;;;;5017677;28;20023;-90
2023/01/28 03:40:01;;;;;;;9.10;7.28;;;;;;;;;;5001298;28;20133;-90
2023/01/28 03:42:27;;;;;;;9.05;8.00;;;;;;;;;;4993321;28;20042;-90
2023/01/28 03:44:54;;;;;;;9.60;8.20;;;;;;;;;;4990885;28;20445;-91
2023/01/28 03:47:20;;;;;;;10.30;8.57;;;;;;;;;;4992429;28;20042;-90
2023/01/28 03:49:50;;;;;;;9.13;8.20;;;;;;;;;;4992073;28;20042;-90
2023/01/28 03:52:17;;;;;;;8.90;7.80;;;;;;;;;;4993696;28;20053;-90
2023/01/28 03:54:46;;;;;;;10.13;8.13;;;;;;;;;;4999602;28;20056;-91
2023/01/28 03:57:12;;;;;;;9.63;8.13;;;;;;;;;;4990980;28;20388;-90
2023/01/28 03:59:39;;;;;;;8.90;7.75;;;;;;;;;;5008301;28;20046;-90
2023/01/28 04:02:05;;;;;;;9.52;7.97;;;;;;;;;;4992671;28;20482;-89
2023/01/28 04:04:31;;;;;;;10.23;8.70;;;;;;;;;;4999165;28;20050;-90
2023/01/28 04:06:58;;;;;;;9.73;7.78;;;;;;;;;;4992844;28;20069;-90
2023/01/28 04:09:24;;;;;;;9.38;8.02;;;;;;;;;;4992832;28;20054;-90
2023/01/28 04:11:50;;;;;;;11.05;8.60;;;;;;;;;;4994764;28;20043;-91
2023/01/28 04:14:17;;;;;;;12.52;7.70;;;;;;;;;;4993503;28;20030;-90
2023/01/28 04:16:43;;;;;;;9.90;7.57;;;;;;;;;;4992757;28;20042;-89
2023/01/28 04:19:11;;;;;;;9.95;7.82;;;;;;;;;;4992133;28;20034;-90
2023/01/28 04:21:38;;;;;;;10.50;7.70;;;;;;;;;;4991721;28;20050;-90
2023/01/28 04:24:04;;;;;;;9.95;7.80;;;;;;;;;;4992862;28;20131;-90
2023/01/28 04:26:30;;;;;;;10.00;8.18;;;;;;;;;;4989192;28;20042;-90
2023/01/28 04:28:56;;;;;;;11.13;8.38;;;;;;;;;;4992385;28;20042;-90
2023/01/28 04:31:22;;;;;;;10.57;8.05;;;;;;;;;;4991068;28;20133;-90
2023/01/28 04:33:49;;;;;;;9.25;8.18;;;;;;;;;;4992432;28;20046;-89
2023/01/28 04:36:15;;;;;;;8.98;7.80;;;;;;;;;;4991926;28;20046;-90
2023/01/28 04:38:41;;;;;;;10.52;8.32;;;;;;;;;;4989914;28;20038;-91
2023/01/28 04:41:07;;;;;;;9.30;7.72;;;;;;;;;;4993743;28;20046;-90
2023/01/28 04:43:33;;;;;;;10.25;8.48;;;;;;;;;;4999637;28;20042;-90
2023/01/28 04:45:59;;;;;;;10.88;8.63;;;;;;;;;;4984239;28;20042;-90
2023/01/28 04:48:25;;;;;;;9.20;8.13;;;;;;;;;;4993758;28;20047;-90
2023/01/28 04:50:51;;;;;;;11.60;8.57;;;;;;;;;;4993964;28;20035;-90
2023/01/28 04:53:17;;;;;;;10.90;8.48;;;;;;;;;;4990324;28;20397;-88
2023/01/28 04:55:44;;;;;;;10.82;8.73;;;;;;;;;;4993945;28;20564;-90
2023/01/28 04:58:10;;;;;;;10.68;8.60;;;;;;;;;;4991827;28;20119;-90
2023/01/28 05:00:36;;;;;;;10.98;8.77;;;;;;;;;;5021542;28;20133;-89
2023/01/28 05:03:02;;;;;;;12.48;8.85;;;;;;;;;;4998358;28;20180;-90
2023/01/28 05:05:28;;;;;;;11.70;8.82;;;;;;;;;;4994261;28;20493;-90
2023/01/28 05:07:55;;;;;;;10.18;8.07;;;;;;;;;;4989942;28;20074;-90
2023/01/28 05:10:21;;;;;;;11.23;8.88;;;;;;;;;;4994342;28;20057;-90
2023/01/28 05:12:48;;;;;;;12.48;9.85;;;;;;;;;;5021800;28;20043;-90
2023/01/28 05:15:18;;;;;;;11.68;9.45;;;;;;;;;;4989338;28;20070;-90
2023/01/28 05:17:44;;;;;;;11.80;9.25;;;;;;;;;;5020093;28;20050;-89
2023/01/28 05:20:11;;;;;;;10.63;8.95;;;;;;;;;;4990510;28;20048;-91
2023/01/28 05:22:37;;;;;;;11.02;9.30;;;;;;;;;;5021666;28;20428;-90
2023/01/28 05:25:03;;;;;;;10.88;8.98;;;;;;;;;;4993355;28;20097;-90
2023/01/28 05:27:31;;;;;;;12.20;8.73;;;;;;;;;;4989251;28;20042;-90
2023/01/28 05:29:57;;;;;;;12.25;9.45;;;;;;;;;;4989730;28;20076;-89
2023/01/28 05:32:23;;;;;;;10.82;8.77;;;;;;;;;;4989519;28;20061;-90
2023/01/28 05:34:49;;;;;;;10.80;9.38;;;;;;;;;;4993858;28;20042;-91
2023/01/28 05:37:15;;;;;;;13.63;11.35;;;;;;;;;;4991826;28;20049;-90
2023/01/28 05:39:41;;;;;;;12.38;10.30;;;;;;;;;;4989391;28;20078;-90
2023/01/28 05:42:07;;;;;;;11.25;9.52;;;;;;;;;;4992990;28;20038;-90
2023/01/28 05:44:33;;;;;;;13.43;9.38;;;;;;;;;;4992367;28;20133;-90
2023/01/28 05:46:59;;;;;;;13.30;9.85;;;;;;;;;;4989368;28;20034;-90
2023/01/28 05:49:25;;;;;;;12.80;9.95;;;;;;;;;;4984496;28;21755;-90
2023/01/28 05:51:52;;;;;;;13.02;9.45;;;;;;;;;;4982924;28;20041;-91
2023/01/28 05:54:18;;;;;;;11.68;9.25;;;;;;;;;;4990139;28;20043;-90
2023/01/28 05:56:46;;;;;;;11.77;9.15;;;;;;;;;;4983743;28;20058;-90
2023/01/28 05:59:12;;;;;;;12.80;9.85;;;;;;;;;;4994716;28;20077;-89
2023/01/28 06:01:38;;;;;;;13.23;9.73;;;;;;;;;;5027719;28;20046;-89
2023/01/28 06:04:04;;;;;;;13.10;9.63;;;;;;;;;;4998541;28;20057;-90
2023/01/28 06:06:30;;;;;;;12.93;10.15;;;;;;;;;;4992880;28;20047;-88
2023/01/28 06:08:56;;;;;;;12.23;9.38;;;;;;;;;;4991080;28;20042;-90
2023/01/28 06:11:26;;;;;;;12.05;9.57;;;;;;;;;;4990421;28;20062;-90
2023/01/28 06:13:52;;;;;;;11.38;8.85;;;;;;;;;;4988550;28;20469;-89
2023/01/28 06:16:18;;;;;;;11.40;9.20;;;;;;;;;;4987007;28;20125;-89
2023/01/28 06:18:44;;;;;;;12.40;9.25;;;;;;;;;;4988824;28;20136;-89
2023/01/28 06:21:10;;;;;;;12.65;9.80;;;;;;;;;;4988854;28;20117;-89
2023/01/28 06:23:36;;;;;;;11.50;9.05;;;;;;;;;;5018771;28;20512;-90
2023/01/28 06:26:02;;;;;;;12.02;9.50;;;;;;;;;;4988767;28;20050;-89
2023/01/28 06:28:28;;;;;;;12.05;9.13;;;;;;;;;;4989427;28;20078;-90
2023/01/28 06:30:55;;;;;;;13.10;9.50;;;;;;;;;;4986265;28;20062;-89
2023/01/28 06:33:21;;;;;;;13.18;9.98;;;;;;;;;;4990405;28;20506;-90
2023/01/28 06:35:47;;;;;;;10.88;8.80;;;;;;;;;;4988736;28;20043;-89
2023/01/28 06:38:14;;;;;;;11.10;8.95;;;;;;;;;;5020883;28;20498;-88
2023/01/28 06:40:40;;;;;;;12.60;8.82;;;;;;;;;;5022531;28;20178;-90
2023/01/28 06:43:06;;;;;;;12.77;9.48;;;;;;;;;;4994374;28;20038;-88
2023/01/28 06:45:32;;;;;;;12.25;9.25;;;;;;;;;;4983601;28;20046;-90
2023/01/28 06:48:02;;;;;;;11.52;8.98;;;;;;;;;;4982724;28;20039;-90
2023/01/28 06:50:28;;;;;;;11.02;8.85;;;;;;;;;;4987562;28;20133;-89
2023/01/28 06:52:54;;;;;;;11.75;8.75;;;;;;;;;;5008534;28;20031;-89
2023/01/28 06:55:20;;;;;;;11.43;8.85;;;;;;;;;;5048652;28;20090;-83
2023/01/28 06:57:46;;;;;;;12.95;9.73;;;;;;;;;;5024963;28;20081;-89
2023/01/28 07:00:14;;;;;;;11.45;9.45;;;;;;;;;;4989559;28;20383;-88
2023/01/28 07:02:40;;;;;;;12.95;11.05;;;;;;;;;;4991612;28;20046;-89
2023/01/28 07:05:07;;;;;;;12.23;9.93;;;;;;;;;;4992534;28;20073;-86
2023/01/28 07:07:33;;;;;;;11.45;9.00;;;;;;;;;;4989177;28;20465;-88
2023/01/28 07:09:59;;;;;;;11.23;8.80;;;;;;;;;;4991558;28;20068;-90
2023/01/28 07:12:25;;;;;;;12.10;9.27;;;;;;;;;;4971972;28;20065;-89
2023/01/28 07:14:51;;;;;;;11.63;9.23;;;;;;;;;;4990328;28;20556;-89
2023/01/28 07:17:17;;;;;;;12.60;9.93;;;;;;;;;;4988933;28;20034;-88
2023/01/28 07:19:43;;;;;;;13.57;9.23;;;;;;;;;;4989631;28;20046;-89
2023/01/28 07:22:09;;;;;;;11.90;9.80;;;;;;;;;;5025104;28;20104;-89
2023/01/28 07:24:35;;;;;;;12.48;9.25;;;;;;;;;;4983375;28;20438;-90
2023/01/28 07:27:01;;;;;;;13.35;9.05;;;;;;;;;;5020254;28;20043;-90
2023/01/28 07:29:27;;;;;;;12.40;9.68;;;;;;;;;;5021677;28;20054;-89
2023/01/28 07:31:53;;;;;;;13.50;9.07;;;;;;;;;;5018736;28;20125;-89
2023/01/28 07:34:19;;;;;;;11.00;9.18;;;;;;;;;;4989295;28;20053;-89
2023/01/28 07:36:45;;;;;;;12.32;9.75;;;;;;;;;;5020531;28;20046;-90
2023/01/28 07:39:17;;;;;;;11.93;9.48;;;;;;;;;;4990634;28;20046;-90
2023/01/28 07:41:43;;;;;;;13.23;9.90;;;;;;;;;;5020126;28;20500;-90
2023/01/28 07:44:09;;;;;;;11.73;8.80;;;;;;;;;;4984408;28;20126;-90
2023/01/28 07:46:35;;;;;;;12.63;8.88;;;;;;;;;;5020275;28;20054;-89
2023/01/28 07:49:01;;;;;;;12.85;9.02;;;;;;;;;;4989099;28;20055;-90
2023/01/28 07:51:27;;;;;;;12.90;9.48;;;;;;;;;;4986473;28;20046;-90
2023/01/28 07:53:53;;;;;;;11.85;8.88;;;;;;;;;;4975287;28;20053;-89
2023/01/28 07:56:22;;;;;;;13.00;9.80;;;;;;;;;;4990637;28;20038;-89
2023/01/28 07:58:51;;;;;;;13.27;9.65;;;;;;;;;;4987029;28;20134;-90
2023/01/28 08:01:18;;;;;;;12.52;9.88;;;;;;;;;;4990284;28;20077;-90
2023/01/28 08:03:44;;;;;;;16.02;10.52;;;;;;;;;;4995198;28;20126;-90
2023/01/28 08:06:10;;;;;;;13.63;9.98;;;;;;;;;;4991079;28;20039;-88
2023/01/28 08:08:37;;;;;;;19.92;13.50;;;;;;;;;;4988743;28;20078;-90
2023/01/28 08:11:07;;;;;;;43.78;26.08;;;;;;;;;;4995320;28;20046;-89
2023/01/28 08:13:34;;;;;;;14.43;10.38;;;;;;;;;;4987381;28;20521;-89
2023/01/28 08:16:01;;;;;;;16.50;10.93;;;;;;;;;;4991668;28;20043;-88
2023/01/28 08:18:27;;;;;;;16.05;10.15;;;;;;;;;;4992352;28;20121;-89
2023/01/28 08:20:56;;;;;;;14.00;9.88;;;;;;;;;;4991562;28;20052;-89
2023/01/28 08:23:22;;;;;;;13.55;10.13;;;;;;;;;;4990565;28;20100;-89
2023/01/28 08:25:48;;;;;;;15.52;10.60;;;;;;;;;;4993447;28;20051;-89
2023/01/28 08:28:15;;;;;;;13.98;10.27;;;;;;;;;;4992672;28;20429;-89
2023/01/28 08:30:41;;;;;;;15.90;11.02;;;;;;;;;;5023644;28;20058;-89
2023/01/28 08:33:08;;;;;;;16.90;10.75;;;;;;;;;;5023897;28;20050;-87
2023/01/28 08:35:37;;;;;;;12.77;9.40;;;;;;;;;;4992379;28;20050;-89
2023/01/28 08:38:05;;;;;;;12.30;9.35;;;;;;;;;;4987382;28;20046;-89
2023/01/28 08:40:31;;;;;;;13.05;9.77;;;;;;;;;;4994553;28;20130;-89
2023/01/28 08:42:57;;;;;;;13.55;9.32;;;;;;;;;;5000561;28;20050;-89
2023/01/28 08:45:24;;;;;;;13.35;8.90;;;;;;;;;;4986891;28;20105;-88
2023/01/28 08:47:51;;;;;;;11.75;9.65;;;;;;;;;;4992021;28;20046;-89
2023/01/28 08:50:18;;;;;;;11.80;9.30;;;;;;;;;;4989299;28;20043;-89
2023/01/28 08:52:44;;;;;;;11.27;8.93;;;;;;;;;;4992343;28;20442;-89
2023/01/28 08:55:13;;;;;;;10.52;8.38;;;;;;;;;;5023264;28;20058;-89
2023/01/28 08:57:39;;;;;;;12.60;8.40;;;;;;;;;;4989732;28;20046;-85
2023/01/28 09:00:06;;;;;;;11.43;8.43;;;;;;;;;;4999284;28;20045;-88
2023/01/28 09:02:32;;;;;;;10.45;8.15;;;;;;;;;;4991765;28;20078;-90
2023/01/28 09:04:59;;;;;;;10.27;7.88;;;;;;;;;;5025116;28;20128;-91
2023/01/28 09:07:25;;;;;;;10.45;7.40;;;;;;;;;;5016108;28;21635;-90
2023/01/28 09:09:51;;;;;;;10.80;7.85;;;;;;;;;;4991894;28;20047;-90
2023/01/28 09:12:17;;;;;;;10.00;7.40;;;;;;;;;;4989521;28;20509;-90
2023/01/28 09:14:43;;;;;;;9.55;7.38;;;;;;;;;;4987264;28;20072;-89
2023/01/28 09:17:09;;;;;;;10.52;7.70;;;;;;;;;;4990499;28;20051;-89
2023/01/28 09:19:35;;;;;;;10.25;8.00;;;;;;;;;;4996281;28;20039;-90
2023/01/28 09:22:04;;;;;;;9.80;7.10;;;;;;;;;;4996980;28;20070;-89
2023/01/28 09:24:30;;;;;;;10.95;7.75;;;;;;;;;;5019510;28;20047;-89
2023/01/28 09:26:56;;;;;;;11.07;8.25;;;;;;;;;;4992958;28;20042;-89
2023/01/28 09:29:22;;;;;;;11.43;8.02;;;;;;;;;;4989846;28;20070;-89
2023/01/28 09:31:48;;;;;;;9.75;7.70;;;;;;;;;;4993528;28;20465;-88
2023/01/28 09:34:14;;;;;;;13.73;7.57;;;;;;;;;;4985816;28;20092;-89
2023/01/28 09:36:40;;;;;;;10.45;6.95;;;;;;;;;;4989965;28;20096;-89
2023/01/28 09:39:07;;;;;;;16.67;10.20;;;;;;;;;;4987433;28;20065;-89
2023/01/28 09:41:57;;;;;;;11.23;7.35;;;;;;;;;;5022578;28;20524;-88
2023/01/28 09:44:31;;;;;;;7.63;5.97;;;;;;;;;;5024624;28;20442;-89
2023/01/28 09:47:01;;;;;;;7.45;6.15;;;;;;;;;;4993799;28;20505;-87
2023/01/28 09:49:44;;;;;;;8.05;6.13;;;;;;;;;;5028415;28;20045;-88
2023/01/28 09:52:17;;;;;;;8.77;6.35;;;;;;;;;;5012832;28;20058;-87
2023/01/28 09:54:49;;;;;;;9.40;6.22;;;;;;;;;;4985846;28;20049;-87
2023/01/28 09:57:36;;;;;;;10.20;5.90;;;;;;;;;;4984664;28;20046;-87
2023/01/28 10:00:03;;;;;;;6.93;5.85;;;;;;;;;;5012108;28;20102;-87
2023/01/28 10:02:55;;;;;;;8.55;6.00;;;;;;;;;;4996361;28;20046;-87
2023/01/28 10:05:24;;;;;;;7.72;5.75;;;;;;;;;;4984961;28;20413;-84
2023/01/28 10:08:03;;;;;;;7.45;5.53;;;;;;;;;;5028029;28;20414;-90
2023/01/28 10:10:32;;;;;;;6.97;5.45;;;;;;;;;;5000657;28;20035;-88
2023/01/28 10:13:01;;;;;;;7.40;5.20;;;;;;;;;;5009160;28;20049;-87
2023/01/28 10:15:34;;;;;;;9.55;6.15;;;;;;;;;;4996748;28;20060;-86
2023/01/28 10:18:08;;;;;;;8.73;5.85;;;;;;;;;;5013562;28;20394;-86
2023/01/28 10:20:37;;;;;;;7.32;5.55;;;;;;;;;;4993167;28;20042;-85
2023/01/28 10:23:21;;;;;;;7.35;5.55;;;;;;;;;;4992825;28;20390;-87
2023/01/28 10:25:47;;;;;;;9.80;5.90;;;;;;;;;;4991932;28;20050;-89
2023/01/28 10:28:22;;;;;;;9.52;5.72;;;;;;;;;;4978744;28;20509;-89
2023/01/28 10:30:51;;;;;;;8.13;5.45;;;;;;;;;;5017859;28;20094;-80
2023/01/28 10:33:21;;;;;;;7.18;5.30;;;;;;;;;;4989630;28;20096;-87
2023/01/28 10:35:48;;;;;;;6.50;4.70;;;;;;;;;;4985444;28;20125;-77
2023/01/28 10:38:15;;;;;;;9.85;5.25;;;;;;;;;;4991370;28;20560;-76
2023/01/28 10:40:42;;;;;;;10.23;6.32;;;;;;;;;;4988974;28;20454;-77
2023/01/28 10:43:08;;;;;;;8.68;5.60;;;;;;;;;;4981126;28;20046;-77
2023/01/28 10:45:43;;;;;;;8.25;5.38;;;;;;;;;;4989112;28;20482;-77
2023/01/28 10:48:18;;;;;;;7.60;5.72;;;;;;;;;;5014134;28;20401;-79
2023/01/28 10:50:51;;;;;;;8.45;6.13;;;;;;;;;;4990959;28;20053;-81
2023/01/28 10:53:17;;;;;;;8.40;6.20;;;;;;;;;;4989864;28;20042;-81
2023/01/28 10:55:58;;;;;;;8.13;5.93;;;;;;;;;;4982875;28;20074;-80
2023/01/28 10:58:24;;;;;;;9.52;6.22;;;;;;;;;;4991455;28;20490;-88
2023/01/28 11:00:56;;;;;;;11.60;6.28;;;;;;;;;;4990018;28;20057;-86
2023/01/28 11:03:26;;;;;;;6.78;5.60;;;;;;;;;;4983232;28;20050;-85
2023/01/28 11:05:54;;;;;;;11.48;6.00;;;;;;;;;;4985345;28;20374;-83
2023/01/28 11:08:20;;;;;;;6.75;5.22;;;;;;;;;;4989002;28;20125;-79
2023/01/28 11:10:47;;;;;;;7.55;5.72;;;;;;;;;;4988391;28;20046;-80
2023/01/28 11:13:18;;;;;;;7.97;5.93;;;;;;;;;;5021742;28;20114;-80
2023/01/28 11:15:52;;;;;;;9.32;6.65;;;;;;;;;;4981075;28;20061;-80
2023/01/28 11:18:30;;;;;;;6.35;5.60;;;;;;;;;;4982117;28;20853;-82
2023/01/28 11:21:16;;;;;;;9.65;5.55;;;;;;;;;;5015238;28;20046;-81
2023/01/28 11:24:00;;;;;;;9.05;5.10;;;;;;;;;;4997075;28;20507;-82
2023/01/28 11:26:27;;;;;;;8.27;5.43;;;;;;;;;;4978934;28;20048;-82
2023/01/28 11:28:54;;;;;;;7.50;4.88;;;;;;;;;;5012929;28;20077;-79
2023/01/28 11:31:23;;;;;;;7.35;4.85;;;;;;;;;;5015854;28;20054;-82
2023/01/28 11:33:54;;;;;;;6.30;4.93;;;;;;;;;;4973886;28;20084;-82
2023/01/28 11:36:22;;;;;;;8.68;4.80;;;;;;;;;;4985894;28;20106;-82
2023/01/28 11:38:59;;;;;;;6.50;4.57;;;;;;;;;;4984744;28;20046;-81
2023/01/28 11:41:30;;;;;;;6.43;4.82;;;;;;;;;;4985178;28;20046;-82
2023/01/28 11:44:13;;;;;;;6.45;4.80;;;;;;;;;;4987737;28;20042;-81
2023/01/28 11:46:39;;;;;;;;;;;;;;;;;;4991972;28;20049;-81
2023/01/28 11:49:14;;;;;;;6.75;4.45;;;;;;;;;;4988806;28;19981;-83
2023/01/28 11:51:46;;;;;;;5.22;4.07;;;;;;;;;;5012824;28;20094;-83
2023/01/28 11:54:29;;;;;;;8.73;4.47;;;;;;;;;;5020158;28;20042;-84
2023/01/28 11:57:11;;;;;;;7.65;4.68;;;;;;;;;;4992977;28;20062;-81
2023/01/28 11:59:43;;;;;;;6.57;4.45;;;;;;;;;;4984759;28;20133;-85
2023/01/28 12:02:27;;;;;;;5.97;4.35;;;;;;;;;;4987183;28;20043;-81
2023/01/28 12:05:14;;;;;;;7.32;4.65;;;;;;;;;;4987681;28;20047;-83
2023/01/28 12:07:48;;;;;;;8.68;5.28;;;;;;;;;;5019825;28;20117;-83
2023/01/28 12:10:20;;;;;;;6.05;4.88;;;;;;;;;;4987501;28;20039;-84
2023/01/28 12:13:05;;;;;;;7.15;5.38;;;;;;;;;;5000094;28;20082;-84
2023/01/28 12:15:50;;;;;;;6.35;4.63;;;;;;;;;;4998100;28;20082;-79
2023/01/28 12:18:35;;;;;;;9.00;5.88;;;;;;;;;;4995081;28;20122;-78
2023/01/28 12:21:07;;;;;;;6.82;4.18;;;;;;;;;;5012216;28;20042;-82
2023/01/28 12:23:33;;;;;;;9.07;4.75;;;;;;;;;;4984960;28;20050;-81
2023/01/28 12:26:04;;;;;;;6.60;5.00;;;;;;;;;;4989068;28;20430;-83
2023/01/28 12:28:35;;;;;;;6.75;4.57;;;;;;;;;;4984460;28;20652;-80
2023/01/28 12:31:24;;;;;;;11.57;5.32;;;;;;;;;;5013592;28;20449;-80
2023/01/28 12:34:03;;;;;;;8.40;4.93;;;;;;;;;;4984332;28;20093;-80
2023/01/28 12:36:35;;;;;;;7.03;5.00;;;;;;;;;;4993368;28;20457;-81
2023/01/28 12:39:23;;;;;;;6.82;4.40;;;;;;;;;;5015621;28;20529;-83
2023/01/28 12:42:09;;;;;;;5.43;4.53;;;;;;;;;;4990258;28;20046;-79
2023/01/28 12:44:38;;;;;;;7.78;4.68;;;;;;;;;;4984405;28;20552;-85
2023/01/28 12:47:10;;;;;;;5.95;4.70;;;;;;;;;;4975897;28;20049;-85
2023/01/28 12:49:39;;;;;;;6.20;4.90;;;;;;;;;;4979247;28;20157;-83
2023/01/28 12:52:12;;;;;;;6.78;4.47;;;;;;;;;;4977507;28;20034;-80
2023/01/28 12:54:57;;;;;;;8.82;4.70;;;;;;;;;;5005375;28;20035;-83
2023/01/28 12:57:26;;;;;;;6.60;4.50;;;;;;;;;;4978707;28;20039;-81
2023/01/28 12:59:56;;;;;;;6.88;4.50;;;;;;;;;;4991536;28;20046;-80
2023/01/28 13:02:48;;;;;;;6.55;4.07;;;;;;;;;;4986544;28;20116;-82
2023/01/28 13:05:20;;;;;;;7.65;4.28;;;;;;;;;;4984045;28;20062;-82
2023/01/28 13:08:00;;;;;;;7.93;4.22;;;;;;;;;;4992059;28;20050;-82
2023/01/28 13:10:41;;;;;;;5.25;4.38;;;;;;;;;;4975817;28;20446;-82
2023/01/28 13:13:12;;;;;;;8.80;4.45;;;;;;;;;;4991579;28;20057;-83
2023/01/28 13:15:40;;;;;;;6.75;4.82;;;;;;;;;;4990119;28;20050;-82
2023/01/28 13:18:06;;;;;;;5.45;4.28;;;;;;;;;;4990180;28;20038;-82
2023/01/28 13:20:35;;;;;;;6.65;3.97;;;;;;;;;;5019139;28;20053;-85
2023/01/28 13:23:13;;;;;;;6.03;3.53;;;;;;;;;;4989757;28;20093;-82
2023/01/28 13:25:50;;;;;;;4.78;3.10;;;;;;;;;;5021381;28;20053;-81
2023/01/28 13:28:27;;;;;;;8.07;3.83;;;;;;;;;;4984612;28;20072;-82
2023/01/28 13:31:00;;;;;;;4.75;3.15;;;;;;;;;;4987959;28;20077;-82
2023/01/28 13:33:28;;;;;;;4.13;3.05;;;;;;;;;;5020037;28;20065;-81
2023/01/28 13:35:57;;;;;;;5.38;3.65;;;;;;;;;;4990695;28;20053;-82
2023/01/28 13:38:24;;;;;;;4.53;3.05;;;;;;;;;;4988708;28;20047;-82
2023/01/28 13:41:08;;;;;;;5.57;3.40;;;;;;;;;;4972767;28;20042;-81
2023/01/28 13:43:37;;;;;;;5.93;3.30;;;;;;;;;;4991066;28;20035;-81
2023/01/28 13:46:08;;;;;;;6.80;3.72;;;;;;;;;;5011684;28;20079;-82
2023/01/28 13:48:34;;;;;;;4.32;3.58;;;;;;;;;;4989065;28;20046;-82
2023/01/28 13:51:01;;;;;;;5.70;4.30;;;;;;;;;;4990637;28;20125;-82
2023/01/28 13:53:43;;;;;;;6.72;4.13;;;;;;;;;;4984168;28;20069;-81
2023/01/28 13:56:25;;;;;;;7.30;3.90;;;;;;;;;;4970532;28;20050;-82
2023/01/28 13:59:10;;;;;;;5.28;3.92;;;;;;;;;;4996512;28;20053;-81
2023/01/28 14:01:54;;;;;;;6.05;4.15;;;;;;;;;;4987808;28;20066;-81
2023/01/28 14:04:23;;;;;;;5.28;4.15;;;;;;;;;;4985498;28;20065;-81
2023/01/28 14:07:07;;;;;;;5.65;4.18;;;;;;;;;;4988559;28;20394;-81
2023/01/28 14:09:34;;;;;;;5.97;3.75;;;;;;;;;;5019284;28;20134;-81
2023/01/28 14:12:18;;;;;;;6.57;3.50;;;;;;;;;;4987883;28;20043;-82
2023/01/28 14:14:44;;;;;;;5.50;3.20;;;;;;;;;;5019287;28;20046;-82
2023/01/28 14:17:29;;;;;;;5.18;3.20;;;;;;;;;;4987098;28;20783;-82
2023/01/28 14:19:56;;;;;;;5.90;3.20;;;;;;;;;;4984794;28;20043;-82
2023/01/28 14:22:23;;;;;;;4.68;3.33;;;;;;;;;;4986232;28;20047;-82
2023/01/28 14:24:54;;;;;;;5.25;3.10;;;;;;;;;;4991617;28;20046;-81
2023/01/28 14:27:20;;;;;;;5.28;3.20;;;;;;;;;;5002694;28;20406;-82
2023/01/28 14:30:05;;;;;;;5.28;3.10;;;;;;;;;;4989607;28;20054;-82
2023/01/28 14:32:31;;;;;;;4.88;2.85;;;;;;;;;;4989390;28;20046;-82
2023/01/28 14:34:59;;;;;;;9.52;4.35;;;;;;;;;;4999514;28;20076;-82
2023/01/28 14:37:28;;;;;;;5.65;3.08;;;;;;;;;;4990563;28;20054;-82
2023/01/28 14:39:59;;;;;;;5.97;2.40;;;;;;;;;;4986764;28;20038;-82
2023/01/28 14:42:29;;;;;;;3.53;2.20;;;;;;;;;;5018250;28;20100;-83
2023/01/28 14:44:58;;;;;;;4.57;2.20;;;;;;;;;;4986024;28;20517;-83
2023/01/28 14:47:35;;;;;;;7.05;1.90;;;;;;;;;;4970534;28;20054;-83
2023/01/28 14:50:08;;;;;;;4.20;1.75;;;;;;;;;;5017249;28;20101;-83
2023/01/28 14:52:34;;;;;;;4.18;1.70;;;;;;;;;;4986212;28;20564;-85
2023/01/28 14:55:05;;;;;;;5.95;1.60;;;;;;;;;;4990915;28;20113;-81
2023/01/28 14:57:31;;;;;;;4.43;2.10;;;;;;;;;;5018233;28;20046;-81
2023/01/28 14:59:59;;;;;;;6.07;2.00;;;;;;;;;;4987674;28;20133;-83
2023/01/28 15:02:29;;;;;;;3.85;1.65;;;;;;;;;;5017209;28;20054;-80
2023/01/28 15:04:55;;;;;;;4.78;1.77;;;;;;;;;;4985743;28;20042;-82
2023/01/28 15:07:25;;;;;;;1.70;1.60;;;;;;;;;;4987797;28;20049;-83
2023/01/28 15:10:04;;;;;;;3.13;2.00;;;;;;;;;;4989235;28;20061;-84
2023/01/28 15:12:33;;;;;;;3.50;1.67;;;;;;;;;;4997511;28;20050;-77
2023/01/28 15:15:07;;;;;;;5.45;2.25;;;;;;;;;;4990105;28;20049;-79
2023/01/28 15:17:33;;;;;;;2.42;1.50;;;;;;;;;;5004176;28;20058;-78
2023/01/28 15:20:02;;;;;;;4.30;2.20;;;;;;;;;;4987558;28;20038;-80
2023/01/28 15:22:29;;;;;;;4.38;2.00;;;;;;;;;;4990300;28;20078;-81